sensor_id;sensor_type;location;lat;lon;timestamp;pressure;altitude;pressure_sealevel;temperature;humidity
61488;BME280;47351;53.326;-6.298;2023-01-26T00:02:00;103362.73;;;5.27;86.17
61488;BME280;47351;53.326;-6.298;2023-01-26T00:04:50;103375.58;;;5.30;86.30
61488;BME280;47351;53.326;-6.298;2023-01-26T00:07:41;103368.94;;;5.32;86.31
61488;BME280;47351;53.326;-6.298;2023-01-26T00:10:33;103368.29;;;5.35;86.30
61488;BME280;47351;53.326;-6.298;2023-01-26T00:13:24;103372.25;;;5.38;86.39
61488;BME280;47351;53.326;-6.298;2023-01-26T00:16:14;103379.55;;;5.41;86.33
61488;BME280;47351;53.326;-6.298;2023-01-26T00:19:05;103377.57;;;5.42;86.09
61488;BME280;47351;53.326;-6.298;2023-01-26T00:21:56;103374.00;;;5.43;85.99
61488;BME280;47351;53.326;-6.298;2023-01-26T00:24:46;103365.17;;;5.42;85.88
61488;BME280;47351;53.326;-6.298;2023-01-26T00:27:37;103369.80;;;5.42;85.86
61488;BME280;47351;53.326;-6.298;2023-01-26T00:30:27;103365.95;;;5.41;85.88
61488;BME280;47351;53.326;-6.298;2023-01-26T00:33:18;103363.13;;;5.40;85.83
61488;BME280;47351;53.326;-6.298;2023-01-26T00:36:09;103365.86;;;5.38;85.76
61488;BME280;47351;53.326;-6.298;2023-01-26T00:39:01;103365.61;;;5.35;85.62
61488;BME280;47351;53.326;-6.298;2023-01-26T00:41:51;103356.38;;;5.31;85.59
61488;BME280;47351;53.326;-6.298;2023-01-26T00:45:03;103351.90;;;5.28;85.70
61488;BME280;47351;53.326;-6.298;2023-01-26T00:47:54;103362.41;;;5.26;85.80
61488;BME280;47351;53.326;-6.298;2023-01-26T00:50:44;103356.58;;;5.26;85.82
61488;BME280;47351;53.326;-6.298;2023-01-26T00:53:35;103347.19;;;5.26;85.80
61488;BME280;47351;53.326;-6.298;2023-01-26T00:56:28;103330.55;;;5.26;85.83
61488;BME280;47351;53.326;-6.298;2023-01-26T00:59:20;103323.28;;;5.26;85.82
61488;BME280;47351;53.326;-6.298;2023-01-26T01:02:10;103317.27;;;5.26;85.78
61488;BME280;47351;53.326;-6.298;2023-01-26T01:05:00;103317.69;;;5.25;85.67
61488;BME280;47351;53.326;-6.298;2023-01-26T01:07:51;103320.40;;;5.23;85.60
61488;BME280;47351;53.326;-6.298;2023-01-26T01:10:42;103327.02;;;5.21;85.61
61488;BME280;47351;53.326;-6.298;2023-01-26T01:13:33;103336.10;;;5.20;85.68
61488;BME280;47351;53.326;-6.298;2023-01-26T01:16:23;103345.84;;;5.20;85.64
61488;BME280;47351;53.326;-6.298;2023-01-26T01:19:18;103341.10;;;5.19;85.48
61488;BME280;47351;53.326;-6.298;2023-01-26T01:22:08;103332.17;;;5.17;85.51
61488;BME280;47351;53.326;-6.298;2023-01-26T01:24:59;103326.62;;;5.14;85.56
61488;BME280;47351;53.326;-6.298;2023-01-26T01:27:50;103329.52;;;5.11;85.57
61488;BME280;47351;53.326;-6.298;2023-01-26T01:30:41;103329.71;;;5.10;85.56
61488;BME280;47351;53.326;-6.298;2023-01-26T01:33:31;103328.32;;;5.10;85.61
61488;BME280;47351;53.326;-6.298;2023-01-26T01:36:22;103333.95;;;5.11;85.74
61488;BME280;47351;53.326;-6.298;2023-01-26T01:39:13;103336.32;;;5.15;85.82
61488;BME280;47351;53.326;-6.298;2023-01-26T01:42:03;103336.93;;;5.17;85.77
61488;BME280;47351;53.326;-6.298;2023-01-26T01:48:02;103338.88;;;5.22;85.49
61488;BME280;47351;53.326;-6.298;2023-01-26T01:50:55;103341.13;;;5.23;85.45
61488;BME280;47351;53.326;-6.298;2023-01-26T01:53:47;103332.61;;;5.24;85.43
61488;BME280;47351;53.326;-6.298;2023-01-26T01:56:41;103327.11;;;5.24;85.38
61488;BME280;47351;53.326;-6.298;2023-01-26T01:59:34;103326.98;;;5.22;85.12
61488;BME280;47351;53.326;-6.298;2023-01-26T02:02:25;103332.04;;;5.20;85.04
61488;BME280;47351;53.326;-6.298;2023-01-26T02:05:16;103333.72;;;5.18;85.07
61488;BME280;47351;53.326;-6.298;2023-01-26T02:08:11;103333.96;;;5.16;85.08
61488;BME280;47351;53.326;-6.298;2023-01-26T02:11:05;103331.73;;;5.14;85.16
61488;BME280;47351;53.326;-6.298;2023-01-26T02:13:57;103340.77;;;5.14;85.21
61488;BME280;47351;53.326;-6.298;2023-01-26T02:16:50;103335.64;;;5.14;85.22
61488;BME280;47351;53.326;-6.298;2023-01-26T02:19:46;103338.11;;;5.14;85.17
61488;BME280;47351;53.326;-6.298;2023-01-26T02:22:41;103336.16;;;5.14;85.24
61488;BME280;47351;53.326;-6.298;2023-01-26T02:25:37;103342.46;;;5.16;85.40
61488;BME280;47351;53.326;-6.298;2023-01-26T02:28:31;103344.48;;;5.19;85.43
61488;BME280;47351;53.326;-6.298;2023-01-26T02:31:23;103341.73;;;5.21;85.46
61488;BME280;47351;53.326;-6.298;2023-01-26T02:34:15;103340.95;;;5.23;85.36
61488;BME280;47351;53.326;-6.298;2023-01-26T02:37:12;103349.05;;;5.24;85.28
61488;BME280;47351;53.326;-6.298;2023-01-26T02:40:04;103351.89;;;5.24;85.22
61488;BME280;47351;53.326;-6.298;2023-01-26T02:42:57;103348.67;;;5.25;85.25
61488;BME280;47351;53.326;-6.298;2023-01-26T02:45:47;103349.75;;;5.25;85.31
61488;BME280;47351;53.326;-6.298;2023-01-26T02:48:38;103350.48;;;5.24;85.22
61488;BME280;47351;53.326;-6.298;2023-01-26T02:51:46;103339.94;;;5.22;85.28
61488;BME280;47351;53.326;-6.298;2023-01-26T02:54:37;103339.20;;;5.18;85.21
61488;BME280;47351;53.326;-6.298;2023-01-26T02:57:57;103345.33;;;5.15;85.25
61488;BME280;47351;53.326;-6.298;2023-01-26T03:00:48;103338.12;;;5.14;85.42
61488;BME280;47351;53.326;-6.298;2023-01-26T03:03:40;103328.02;;;5.14;85.52
61488;BME280;47351;53.326;-6.298;2023-01-26T03:06:30;103327.13;;;5.14;85.54
61488;BME280;47351;53.326;-6.298;2023-01-26T03:09:21;103341.05;;;5.16;85.64
61488;BME280;47351;53.326;-6.298;2023-01-26T03:12:12;103359.23;;;5.17;85.71
61488;BME280;47351;53.326;-6.298;2023-01-26T03:15:03;103361.81;;;5.19;85.80
61488;BME280;47351;53.326;-6.298;2023-01-26T03:18:13;103358.15;;;5.22;85.81
61488;BME280;47351;53.326;-6.298;2023-01-26T03:21:22;103355.79;;;5.24;85.66
61488;BME280;47351;53.326;-6.298;2023-01-26T03:24:29;103343.16;;;5.25;85.61
61488;BME280;47351;53.326;-6.298;2023-01-26T03:27:38;103340.46;;;5.26;85.53
61488;BME280;47351;53.326;-6.298;2023-01-26T03:30:29;103346.68;;;5.26;85.54
61488;BME280;47351;53.326;-6.298;2023-01-26T03:33:21;103357.63;;;5.27;85.63
61488;BME280;47351;53.326;-6.298;2023-01-26T03:36:13;103356.23;;;5.26;85.51
61488;BME280;47351;53.326;-6.298;2023-01-26T03:39:04;103363.38;;;5.24;85.32
61488;BME280;47351;53.326;-6.298;2023-01-26T03:41:55;103370.85;;;5.24;85.39
61488;BME280;47351;53.326;-6.298;2023-01-26T03:45:04;103369.68;;;5.22;85.37
61488;BME280;47351;53.326;-6.298;2023-01-26T03:48:13;103370.66;;;5.19;85.32
61488;BME280;47351;53.326;-6.298;2023-01-26T03:51:21;103365.79;;;5.17;85.34
61488;BME280;47351;53.326;-6.298;2023-01-26T03:54:29;103358.73;;;5.17;85.42
61488;BME280;47351;53.326;-6.298;2023-01-26T03:57:38;103359.62;;;5.16;85.54
61488;BME280;47351;53.326;-6.298;2023-01-26T04:00:29;103359.89;;;5.18;85.71
61488;BME280;47351;53.326;-6.298;2023-01-26T04:03:19;103354.34;;;5.20;85.63
61488;BME280;47351;53.326;-6.298;2023-01-26T04:06:28;103346.61;;;5.23;85.66
61488;BME280;47351;53.326;-6.298;2023-01-26T04:09:36;103344.80;;;5.24;85.54
61488;BME280;47351;53.326;-6.298;2023-01-26T04:12:27;103350.92;;;5.26;85.53
61488;BME280;47351;53.326;-6.298;2023-01-26T04:15:34;103350.46;;;5.29;85.48
61488;BME280;47351;53.326;-6.298;2023-01-26T04:18:42;103357.81;;;5.31;85.46
61488;BME280;47351;53.326;-6.298;2023-01-26T04:21:51;103362.45;;;5.34;85.59
61488;BME280;47351;53.326;-6.298;2023-01-26T04:24:42;103361.80;;;5.38;85.46
61488;BME280;47351;53.326;-6.298;2023-01-26T04:27:32;103359.77;;;5.40;85.47
61488;BME280;47351;53.326;-6.298;2023-01-26T04:30:24;103356.20;;;5.41;85.32
61488;BME280;47351;53.326;-6.298;2023-01-26T04:33:15;103350.55;;;5.41;85.15
61488;BME280;47351;53.326;-6.298;2023-01-26T04:36:06;103350.22;;;5.40;85.01
61488;BME280;47351;53.326;-6.298;2023-01-26T04:39:00;103354.00;;;5.38;84.90
61488;BME280;47351;53.326;-6.298;2023-01-26T04:41:51;103365.61;;;5.36;84.91
61488;BME280;47351;53.326;-6.298;2023-01-26T04:44:42;103369.56;;;5.34;84.84
61488;BME280;47351;53.326;-6.298;2023-01-26T04:47:33;103375.70;;;5.31;84.79
61488;BME280;47351;53.326;-6.298;2023-01-26T04:50:25;103375.08;;;5.29;84.87
61488;BME280;47351;53.326;-6.298;2023-01-26T04:53:16;103374.79;;;5.27;84.84
61488;BME280;47351;53.326;-6.298;2023-01-26T04:56:07;103375.45;;;5.24;84.82
61488;BME280;47351;53.326;-6.298;2023-01-26T04:58:59;103377.19;;;5.20;84.80
61488;BME280;47351;53.326;-6.298;2023-01-26T05:02:10;103381.14;;;5.14;84.76
61488;BME280;47351;53.326;-6.298;2023-01-26T05:05:00;103382.98;;;5.07;84.83
61488;BME280;47351;53.326;-6.298;2023-01-26T05:07:51;103386.78;;;5.00;84.95
61488;BME280;47351;53.326;-6.298;2023-01-26T05:10:42;103389.86;;;4.93;85.13
61488;BME280;47351;53.326;-6.298;2023-01-26T05:13:42;103386.16;;;4.87;85.30
61488;BME280;47351;53.326;-6.298;2023-01-26T05:16:38;103392.45;;;4.85;85.53
61488;BME280;47351;53.326;-6.298;2023-01-26T05:19:48;103397.13;;;4.83;85.60
61488;BME280;47351;53.326;-6.298;2023-01-26T05:22:59;103397.52;;;4.82;85.51
61488;BME280;47351;53.326;-6.298;2023-01-26T05:25:49;103387.77;;;4.83;85.46
61488;BME280;47351;53.326;-6.298;2023-01-26T05:28:40;103375.62;;;4.81;85.41
61488;BME280;47351;53.326;-6.298;2023-01-26T05:31:31;103375.77;;;4.76;85.33
61488;BME280;47351;53.326;-6.298;2023-01-26T05:34:21;103380.23;;;4.71;85.31
61488;BME280;47351;53.326;-6.298;2023-01-26T05:37:12;103385.73;;;4.65;85.34
61488;BME280;47351;53.326;-6.298;2023-01-26T05:40:06;103391.38;;;4.60;85.44
61488;BME280;47351;53.326;-6.298;2023-01-26T05:42:57;103397.14;;;4.57;85.50
61488;BME280;47351;53.326;-6.298;2023-01-26T05:46:06;103394.66;;;4.57;85.53
61488;BME280;47351;53.326;-6.298;2023-01-26T05:48:59;103393.08;;;4.57;85.50
61488;BME280;47351;53.326;-6.298;2023-01-26T05:51:50;103390.71;;;4.59;85.38
61488;BME280;47351;53.326;-6.298;2023-01-26T05:54:41;103386.27;;;4.60;85.26
61488;BME280;47351;53.326;-6.298;2023-01-26T05:57:32;103389.90;;;4.62;85.36
61488;BME280;47351;53.326;-6.298;2023-01-26T06:00:25;103392.42;;;4.66;85.32
61488;BME280;47351;53.326;-6.298;2023-01-26T06:03:36;103392.25;;;4.71;85.23
61488;BME280;47351;53.326;-6.298;2023-01-26T06:06:27;103391.17;;;4.76;85.18
61488;BME280;47351;53.326;-6.298;2023-01-26T06:09:37;103392.42;;;4.81;85.11
61488;BME280;47351;53.326;-6.298;2023-01-26T06:12:44;103400.37;;;4.86;85.02
61488;BME280;47351;53.326;-6.298;2023-01-26T06:16:00;103404.41;;;4.92;84.79
61488;BME280;47351;53.326;-6.298;2023-01-26T06:18:51;103406.17;;;4.97;84.75
61488;BME280;47351;53.326;-6.298;2023-01-26T06:21:42;103408.14;;;5.01;84.49
61488;BME280;47351;53.326;-6.298;2023-01-26T06:24:33;103407.66;;;5.05;84.32
61488;BME280;47351;53.326;-6.298;2023-01-26T06:27:25;103408.77;;;5.08;84.18
61488;BME280;47351;53.326;-6.298;2023-01-26T06:30:16;103410.77;;;5.12;84.05
61488;BME280;47351;53.326;-6.298;2023-01-26T06:33:09;103410.64;;;5.15;83.90
61488;BME280;47351;53.326;-6.298;2023-01-26T06:36:01;103408.95;;;5.18;83.86
61488;BME280;47351;53.326;-6.298;2023-01-26T06:38:52;103410.28;;;5.20;83.69
61488;BME280;47351;53.326;-6.298;2023-01-26T06:41:45;103410.04;;;5.22;83.60
61488;BME280;47351;53.326;-6.298;2023-01-26T06:44:36;103408.63;;;5.22;83.49
61488;BME280;47351;53.326;-6.298;2023-01-26T06:47:26;103405.30;;;5.21;83.43
61488;BME280;47351;53.326;-6.298;2023-01-26T06:50:19;103406.25;;;5.19;83.41
61488;BME280;47351;53.326;-6.298;2023-01-26T06:53:23;103410.20;;;5.18;83.40
61488;BME280;47351;53.326;-6.298;2023-01-26T06:56:34;103412.55;;;5.16;83.42
61488;BME280;47351;53.326;-6.298;2023-01-26T06:59:48;103411.59;;;5.14;83.44
61488;BME280;47351;53.326;-6.298;2023-01-26T07:03:14;103418.98;;;5.10;83.42
61488;BME280;47351;53.326;-6.298;2023-01-26T07:06:05;103425.64;;;5.07;83.38
61488;BME280;47351;53.326;-6.298;2023-01-26T07:08:56;103426.12;;;5.03;83.36
61488;BME280;47351;53.326;-6.298;2023-01-26T07:11:46;103434.29;;;5.03;83.40
61488;BME280;47351;53.326;-6.298;2023-01-26T07:14:36;103437.45;;;5.03;83.53
61488;BME280;47351;53.326;-6.298;2023-01-26T07:17:27;103440.24;;;5.04;83.61
61488;BME280;47351;53.326;-6.298;2023-01-26T07:20:18;103442.00;;;5.05;83.62
61488;BME280;47351;53.326;-6.298;2023-01-26T07:23:08;103437.36;;;5.06;83.72
61488;BME280;47351;53.326;-6.298;2023-01-26T07:25:59;103438.49;;;5.09;83.73
61488;BME280;47351;53.326;-6.298;2023-01-26T07:28:50;103444.14;;;5.09;83.61
61488;BME280;47351;53.326;-6.298;2023-01-26T07:31:40;103443.84;;;5.08;83.49
61488;BME280;47351;53.326;-6.298;2023-01-26T07:34:32;103444.08;;;5.06;83.37
61488;BME280;47351;53.326;-6.298;2023-01-26T07:37:22;103441.56;;;5.02;83.24
61488;BME280;47351;53.326;-6.298;2023-01-26T07:40:16;103444.02;;;4.98;83.18
61488;BME280;47351;53.326;-6.298;2023-01-26T07:43:07;103445.80;;;4.93;83.19
61488;BME280;47351;53.326;-6.298;2023-01-26T07:46:10;103445.67;;;4.86;83.12
61488;BME280;47351;53.326;-6.298;2023-01-26T07:49:03;103445.38;;;4.79;83.17
61488;BME280;47351;53.326;-6.298;2023-01-26T07:51:53;103443.89;;;4.76;83.26
61488;BME280;47351;53.326;-6.298;2023-01-26T07:54:44;103444.34;;;4.74;83.46
61488;BME280;47351;53.326;-6.298;2023-01-26T07:57:35;103446.85;;;4.73;83.60
61488;BME280;47351;53.326;-6.298;2023-01-26T08:00:26;103439.43;;;4.72;83.74
61488;BME280;47351;53.326;-6.298;2023-01-26T08:03:16;103441.73;;;4.72;83.71
61488;BME280;47351;53.326;-6.298;2023-01-26T08:06:07;103444.92;;;4.72;83.82
61488;BME280;47351;53.326;-6.298;2023-01-26T08:09:37;103441.43;;;4.71;83.89
61488;BME280;47351;53.326;-6.298;2023-01-26T08:12:28;103442.02;;;4.69;83.88
61488;BME280;47351;53.326;-6.298;2023-01-26T08:15:21;103439.60;;;4.68;83.97
61488;BME280;47351;53.326;-6.298;2023-01-26T08:18:14;103440.71;;;4.66;83.99
61488;BME280;47351;53.326;-6.298;2023-01-26T08:21:05;103443.45;;;4.63;83.94
61488;BME280;47351;53.326;-6.298;2023-01-26T08:23:55;103442.30;;;4.61;84.00
61488;BME280;47351;53.326;-6.298;2023-01-26T08:26:50;103442.36;;;4.59;84.09
61488;BME280;47351;53.326;-6.298;2023-01-26T08:29:41;103436.92;;;4.58;84.08
61488;BME280;47351;53.326;-6.298;2023-01-26T08:32:31;103439.25;;;4.57;84.13
61488;BME280;47351;53.326;-6.298;2023-01-26T08:35:22;103442.77;;;4.58;84.33
61488;BME280;47351;53.326;-6.298;2023-01-26T08:38:13;103444.15;;;4.58;84.38
61488;BME280;47351;53.326;-6.298;2023-01-26T08:41:04;103448.27;;;4.62;84.52
61488;BME280;47351;53.326;-6.298;2023-01-26T08:43:55;103451.11;;;4.67;84.56
61488;BME280;47351;53.326;-6.298;2023-01-26T08:46:50;103456.57;;;4.73;84.43
61488;BME280;47351;53.326;-6.298;2023-01-26T08:49:40;103456.55;;;4.78;84.38
61488;BME280;47351;53.326;-6.298;2023-01-26T08:52:31;103459.04;;;4.83;84.27
61488;BME280;47351;53.326;-6.298;2023-01-26T08:55:22;103460.85;;;4.87;84.06
61488;BME280;47351;53.326;-6.298;2023-01-26T08:58:12;103456.88;;;4.90;83.97
61488;BME280;47351;53.326;-6.298;2023-01-26T09:01:04;103453.79;;;4.92;83.84
61488;BME280;47351;53.326;-6.298;2023-01-26T09:03:54;103452.27;;;4.95;83.80
61488;BME280;47351;53.326;-6.298;2023-01-26T09:06:46;103457.82;;;4.98;83.53
61488;BME280;47351;53.326;-6.298;2023-01-26T09:09:36;103464.39;;;5.02;83.41
61488;BME280;47351;53.326;-6.298;2023-01-26T09:12:30;103470.80;;;5.06;83.26
61488;BME280;47351;53.326;-6.298;2023-01-26T09:15:20;103468.89;;;5.10;83.06
61488;BME280;47351;53.326;-6.298;2023-01-26T09:18:11;103465.13;;;5.16;82.97
61488;BME280;47351;53.326;-6.298;2023-01-26T09:21:05;103466.42;;;5.25;82.93
61488;BME280;47351;53.326;-6.298;2023-01-26T09:23:56;103462.92;;;5.33;82.80
61488;BME280;47351;53.326;-6.298;2023-01-26T09:26:46;103475.80;;;5.40;82.57
61488;BME280;47351;53.326;-6.298;2023-01-26T09:29:37;103472.20;;;5.45;82.58
61488;BME280;47351;53.326;-6.298;2023-01-26T09:32:27;103473.84;;;5.54;82.62
61488;BME280;47351;53.326;-6.298;2023-01-26T09:35:19;103473.67;;;5.63;82.55
61488;BME280;47351;53.326;-6.298;2023-01-26T09:38:09;103473.59;;;5.74;82.55
61488;BME280;47351;53.326;-6.298;2023-01-26T09:41:01;103482.09;;;5.84;82.05
61488;BME280;47351;53.326;-6.298;2023-01-26T09:43:54;103486.77;;;5.92;81.73
61488;BME280;47351;53.326;-6.298;2023-01-26T09:46:49;103488.48;;;6.03;81.47
61488;BME280;47351;53.326;-6.298;2023-01-26T09:49:43;103485.08;;;6.17;81.21
61488;BME280;47351;53.326;-6.298;2023-01-26T09:52:36;103490.39;;;6.35;80.94
61488;BME280;47351;53.326;-6.298;2023-01-26T09:55:29;103499.73;;;6.45;80.52
61488;BME280;47351;53.326;-6.298;2023-01-26T09:58:21;103503.30;;;6.49;80.52
61488;BME280;47351;53.326;-6.298;2023-01-26T10:01:16;103505.80;;;6.53;80.56
61488;BME280;47351;53.326;-6.298;2023-01-26T10:04:12;103508.95;;;6.58;80.46
61488;BME280;47351;53.326;-6.298;2023-01-26T10:07:04;103497.67;;;6.69;80.27
61488;BME280;47351;53.326;-6.298;2023-01-26T10:10:08;103494.40;;;6.83;79.81
61488;BME280;47351;53.326;-6.298;2023-01-26T10:13:04;103497.48;;;6.99;79.62
61488;BME280;47351;53.326;-6.298;2023-01-26T10:15:55;103501.15;;;7.12;79.65
61488;BME280;47351;53.326;-6.298;2023-01-26T10:18:50;103506.66;;;7.24;79.27
61488;BME280;47351;53.326;-6.298;2023-01-26T10:21:43;103506.91;;;7.34;78.92
61488;BME280;47351;53.326;-6.298;2023-01-26T10:24:35;103507.58;;;7.47;78.63
61488;BME280;47351;53.326;-6.298;2023-01-26T10:27:27;103506.70;;;7.59;78.28
61488;BME280;47351;53.326;-6.298;2023-01-26T10:30:18;103501.10;;;7.65;78.05
61488;BME280;47351;53.326;-6.298;2023-01-26T10:33:13;103504.30;;;7.61;77.85
61488;BME280;47351;53.326;-6.298;2023-01-26T10:36:05;103510.85;;;7.50;77.70
61488;BME280;47351;53.326;-6.298;2023-01-26T10:38:56;103516.43;;;7.40;77.83
61488;BME280;47351;53.326;-6.298;2023-01-26T10:41:58;103517.75;;;7.34;78.02
61488;BME280;47351;53.326;-6.298;2023-01-26T10:44:49;103521.03;;;7.40;78.11
61488;BME280;47351;53.326;-6.298;2023-01-26T10:47:40;103528.97;;;7.58;77.84
61488;BME280;47351;53.326;-6.298;2023-01-26T10:50:31;103522.66;;;7.75;77.42
61488;BME280;47351;53.326;-6.298;2023-01-26T10:53:23;103517.21;;;7.85;76.91
61488;BME280;47351;53.326;-6.298;2023-01-26T10:56:16;103519.33;;;7.93;76.58
61488;BME280;47351;53.326;-6.298;2023-01-26T10:59:06;103521.38;;;7.99;76.47
61488;BME280;47351;53.326;-6.298;2023-01-26T11:01:59;103520.48;;;8.03;76.34
61488;BME280;47351;53.326;-6.298;2023-01-26T11:07:57;103516.79;;;8.28;76.35
61488;BME280;47351;53.326;-6.298;2023-01-26T11:10:51;103512.71;;;8.43;76.03
61488;BME280;47351;53.326;-6.298;2023-01-26T11:13:42;103521.52;;;8.63;75.72
61488;BME280;47351;53.326;-6.298;2023-01-26T11:16:32;103521.61;;;8.89;75.25
61488;BME280;47351;53.326;-6.298;2023-01-26T11:19:30;103517.77;;;9.15;74.51
61488;BME280;47351;53.326;-6.298;2023-01-26T11:22:24;103520.51;;;9.38;74.12
61488;BME280;47351;53.326;-6.298;2023-01-26T11:25:19;103527.95;;;9.55;74.19
61488;BME280;47351;53.326;-6.298;2023-01-26T11:28:16;103530.95;;;9.56;73.77
61488;BME280;47351;53.326;-6.298;2023-01-26T11:31:17;103527.91;;;9.36;73.43
61488;BME280;47351;53.326;-6.298;2023-01-26T11:34:18;103527.02;;;9.12;73.57
61488;BME280;47351;53.326;-6.298;2023-01-26T11:40:29;103530.50;;;8.68;74.00
61488;BME280;47351;53.326;-6.298;2023-01-26T11:43:24;103531.61;;;8.56;74.25
61488;BME280;47351;53.326;-6.298;2023-01-26T11:46:20;103528.02;;;8.50;74.24
61488;BME280;47351;53.326;-6.298;2023-01-26T11:52:39;103517.34;;;8.24;75.06
61488;BME280;47351;53.326;-6.298;2023-01-26T11:55:36;103517.11;;;8.13;75.41
61488;BME280;47351;53.326;-6.298;2023-01-26T11:58:28;103513.09;;;8.01;75.41
61488;BME280;47351;53.326;-6.298;2023-01-26T12:01:21;103505.68;;;7.92;75.55
61488;BME280;47351;53.326;-6.298;2023-01-26T12:04:18;103501.89;;;7.89;75.71
61488;BME280;47351;53.326;-6.298;2023-01-26T12:07:13;103501.13;;;7.90;75.91
61488;BME280;47351;53.326;-6.298;2023-01-26T12:10:04;103498.95;;;7.92;76.02
61488;BME280;47351;53.326;-6.298;2023-01-26T12:12:59;103492.98;;;7.94;76.13
61488;BME280;47351;53.326;-6.298;2023-01-26T12:15:52;103488.84;;;7.95;76.18
61488;BME280;47351;53.326;-6.298;2023-01-26T12:18:47;103487.42;;;7.98;76.21
61488;BME280;47351;53.326;-6.298;2023-01-26T12:21:59;103487.49;;;8.08;76.32
61488;BME280;47351;53.326;-6.298;2023-01-26T12:24:53;103485.63;;;8.25;76.18
61488;BME280;47351;53.326;-6.298;2023-01-26T12:28:15;103479.36;;;8.41;75.92
61488;BME280;47351;53.326;-6.298;2023-01-26T12:31:08;103480.02;;;8.59;75.98
61488;BME280;47351;53.326;-6.298;2023-01-26T12:34:03;103481.23;;;8.92;75.47
61488;BME280;47351;53.326;-6.298;2023-01-26T12:37:02;103484.23;;;8.99;74.97
61488;BME280;47351;53.326;-6.298;2023-01-26T12:40:03;103482.60;;;8.99;74.78
61488;BME280;47351;53.326;-6.298;2023-01-26T12:42:59;103479.31;;;9.04;74.80
61488;BME280;47351;53.326;-6.298;2023-01-26T12:46:08;103475.65;;;9.13;74.57
61488;BME280;47351;53.326;-6.298;2023-01-26T12:49:00;103468.10;;;9.24;74.25
61488;BME280;47351;53.326;-6.298;2023-01-26T12:52:00;103465.21;;;9.39;73.86
61488;BME280;47351;53.326;-6.298;2023-01-26T12:55:00;103467.82;;;9.46;73.93
61488;BME280;47351;53.326;-6.298;2023-01-26T12:57:52;103465.36;;;9.45;73.74
61488;BME280;47351;53.326;-6.298;2023-01-26T13:00:50;103459.27;;;9.49;73.28
61488;BME280;47351;53.326;-6.298;2023-01-26T13:03:42;103449.17;;;9.58;73.10
61488;BME280;47351;53.326;-6.298;2023-01-26T13:06:33;103447.20;;;9.75;72.92
61488;BME280;47351;53.326;-6.298;2023-01-26T13:09:24;103439.79;;;10.68;72.91
61488;BME280;47351;53.326;-6.298;2023-01-26T13:15:19;103416.38;;;12.92;69.25
61488;BME280;47351;53.326;-6.298;2023-01-26T13:18:10;103406.93;;;13.72;67.11
61488;BME280;47351;53.326;-6.298;2023-01-26T13:21:01;103400.84;;;14.32;64.73
61488;BME280;47351;53.326;-6.298;2023-01-26T13:23:52;103396.88;;;14.67;63.73
61488;BME280;47351;53.326;-6.298;2023-01-26T13:26:43;103387.64;;;15.20;63.19
61488;BME280;47351;53.326;-6.298;2023-01-26T13:29:34;103379.59;;;15.73;61.12
61488;BME280;47351;53.326;-6.298;2023-01-26T13:35:45;103383.45;;;16.47;58.53
61488;BME280;47351;53.326;-6.298;2023-01-26T13:38:38;103385.68;;;16.69;57.69
61488;BME280;47351;53.326;-6.298;2023-01-26T13:41:30;103377.52;;;17.05;57.55
61488;BME280;47351;53.326;-6.298;2023-01-26T13:44:22;103374.23;;;17.26;56.87
61488;BME280;47351;53.326;-6.298;2023-01-26T13:47:18;103373.85;;;16.64;56.40
61488;BME280;47351;53.326;-6.298;2023-01-26T13:50:21;103374.28;;;15.67;56.91
61488;BME280;47351;53.326;-6.298;2023-01-26T13:53:28;103379.54;;;15.22;57.00
61488;BME280;47351;53.326;-6.298;2023-01-26T13:56:24;103382.28;;;14.36;57.48
61488;BME280;47351;53.326;-6.298;2023-01-26T13:59:16;103385.00;;;13.57;58.17
61488;BME280;47351;53.326;-6.298;2023-01-26T14:02:19;103378.37;;;12.84;59.23
61488;BME280;47351;53.326;-6.298;2023-01-26T14:05:20;103376.36;;;12.20;60.09
61488;BME280;47351;53.326;-6.298;2023-01-26T14:08:15;103370.11;;;11.65;61.16
61488;BME280;47351;53.326;-6.298;2023-01-26T14:11:17;103373.52;;;11.23;62.14
61488;BME280;47351;53.326;-6.298;2023-01-26T14:14:16;103374.28;;;10.97;62.84
61488;BME280;47351;53.326;-6.298;2023-01-26T14:17:21;103369.09;;;10.97;63.41
61488;BME280;47351;53.326;-6.298;2023-01-26T14:20:26;103366.70;;;11.10;63.53
61488;BME280;47351;53.326;-6.298;2023-01-26T14:23:17;103365.52;;;11.23;63.48
61488;BME280;47351;53.326;-6.298;2023-01-26T14:26:30;103365.17;;;11.23;63.44
61488;BME280;47351;53.326;-6.298;2023-01-26T14:29:21;103366.55;;;11.15;63.50
61488;BME280;47351;53.326;-6.298;2023-01-26T14:32:14;103365.68;;;11.03;63.53
61488;BME280;47351;53.326;-6.298;2023-01-26T14:35:17;103373.80;;;10.82;64.00
61488;BME280;47351;53.326;-6.298;2023-01-26T14:38:13;103372.09;;;10.66;64.34
61488;BME280;47351;53.326;-6.298;2023-01-26T14:41:08;103373.35;;;10.63;64.71
61488;BME280;47351;53.326;-6.298;2023-01-26T14:44:19;103373.61;;;10.64;64.73
61488;BME280;47351;53.326;-6.298;2023-01-26T14:47:11;103371.21;;;10.65;64.76
61488;BME280;47351;53.326;-6.298;2023-01-26T14:50:05;103363.37;;;10.71;64.67
61488;BME280;47351;53.326;-6.298;2023-01-26T14:52:57;103363.70;;;10.80;64.72
61488;BME280;47351;53.326;-6.298;2023-01-26T14:55:49;103361.89;;;10.87;64.90
61488;BME280;47351;53.326;-6.298;2023-01-26T14:58:41;103372.63;;;10.86;65.13
61488;BME280;47351;53.326;-6.298;2023-01-26T15:01:32;103374.99;;;10.83;65.52
61488;BME280;47351;53.326;-6.298;2023-01-26T15:04:33;103370.13;;;10.65;65.37
61488;BME280;47351;53.326;-6.298;2023-01-26T15:07:36;103367.70;;;10.41;65.69
61488;BME280;47351;53.326;-6.298;2023-01-26T15:10:31;103368.05;;;10.20;65.81
61488;BME280;47351;53.326;-6.298;2023-01-26T15:13:23;103372.17;;;9.98;66.05
61488;BME280;47351;53.326;-6.298;2023-01-26T15:16:15;103373.01;;;9.77;66.48
61488;BME280;47351;53.326;-6.298;2023-01-26T15:22:19;103361.12;;;9.42;67.60
61488;BME280;47351;53.326;-6.298;2023-01-26T15:25:17;103354.71;;;9.28;68.06
61488;BME280;47351;53.326;-6.298;2023-01-26T15:28:14;103352.79;;;9.18;68.47
61488;BME280;47351;53.326;-6.298;2023-01-26T15:31:06;103355.66;;;9.04;68.81
61488;BME280;47351;53.326;-6.298;2023-01-26T15:33:57;103359.48;;;8.90;69.22